Time;durP1;ratioP1;P1;durP2;ratioP2;P2;SDS_P1;SDS_P2;PMS_P1;PMS_P2;Temp;Humidity;BMP_temperature;BMP_pressure;BME280_temperature;BME280_humidity;BME280_pressure;Samples;Min_cycle;Max_cycle;Signal;HPM_P1;HPM_P2
2023/07/19 00:01:27;;;;;;;5.35;0.88;;;;;;;21.49;87.51;100520.59;5076715;28;20127;-65
2023/07/19 00:03:52;;;;;;;6.93;0.85;;;;;;;21.55;87.06;100526.06;5072535;28;20036;-64
2023/07/19 00:06:17;;;;;;;5.88;0.50;;;;;;;21.56;86.68;100514.44;5081195;28;20040;-65
2023/07/19 00:08:43;;;;;;;4.75;0.65;;;;;;;21.59;86.43;100521.97;5087448;28;20047;-64
2023/07/19 00:11:08;;;;;;;4.72;0.65;;;;;;;21.61;86.29;100520.72;5084782;28;20039;-66
2023/07/19 00:13:34;;;;;;;3.45;0.50;;;;;;;21.59;86.40;100517.47;5078527;28;20036;-66
2023/07/19 00:15:59;;;;;;;5.38;1.08;;;;;;;21.53;87.43;100503.25;5079087;28;20027;-65
2023/07/19 00:18:25;;;;;;;4.40;0.70;;;;;;;21.49;87.75;100494.09;5077614;28;20356;-66
2023/07/19 00:20:50;;;;;;;6.90;0.55;;;;;;;21.47;87.63;100487.38;5086573;28;20028;-66
2023/07/19 00:23:16;;;;;;;2.13;0.40;;;;;;;21.49;87.19;100490.63;5084894;28;20162;-66
2023/07/19 00:25:41;;;;;;;5.55;0.57;;;;;;;21.58;86.31;100485.88;5078452;28;20025;-66
2023/07/19 00:28:07;;;;;;;4.25;0.65;;;;;;;21.59;85.94;100495.47;5088244;28;20040;-66
2023/07/19 00:30:32;;;;;;;3.53;0.60;;;;;;;21.56;85.95;100496.69;5076986;28;20020;-66
2023/07/19 00:32:58;;;;;;;4.68;0.70;;;;;;;21.55;86.05;100495.06;5072841;28;20061;-66
2023/07/19 00:35:23;;;;;;;4.60;0.70;;;;;;;21.48;86.57;100489.81;5083434;28;20066;-65
2023/07/19 00:37:48;;;;;;;2.90;0.50;;;;;;;21.39;88.00;100485.81;5092784;28;20036;-65
2023/07/19 00:40:14;;;;;;;3.97;0.70;;;;;;;21.34;88.28;100485.63;5087000;28;20082;-65
2023/07/19 00:42:40;;;;;;;3.97;0.80;;;;;;;21.28;89.22;100494.44;5060038;28;20107;-65
2023/07/19 00:45:06;;;;;;;3.70;0.95;;;;;;;21.26;89.60;100499.16;5075902;28;20111;-65
2023/07/19 00:47:33;;;;;;;5.88;0.70;;;;;;;21.30;89.10;100486.28;5081424;28;20036;-66
2023/07/19 00:49:59;;;;;;;6.15;1.17;;;;;;;21.42;88.05;100497.81;5076497;28;20024;-66
2023/07/19 00:52:25;;;;;;;8.35;1.52;;;;;;;21.47;87.62;100509.41;5080793;28;20067;-65
2023/07/19 00:54:51;;;;;;;11.27;2.42;;;;;;;21.44;88.00;100499.22;5080329;28;20527;-66
2023/07/19 00:57:17;;;;;;;6.80;1.10;;;;;;;21.50;87.26;100489.59;5076223;28;20119;-66
2023/07/19 00:59:43;;;;;;;6.13;0.88;;;;;;;21.57;87.01;100486.91;5086191;28;20111;-66
2023/07/19 01:02:09;;;;;;;4.75;0.90;;;;;;;21.63;86.44;100491.34;5078926;28;20143;-65
2023/07/19 01:04:35;;;;;;;6.28;1.00;;;;;;;21.63;86.41;100480.75;5081296;28;20094;-66
2023/07/19 01:07:03;;;;;;;3.17;0.63;;;;;;;21.53;87.11;100479.38;5073452;28;20028;-65
2023/07/19 01:09:29;;;;;;;6.97;1.13;;;;;;;21.50;87.21;100482.47;5092230;28;20474;-65
2023/07/19 01:11:54;;;;;;;5.50;0.52;;;;;;;21.53;87.41;100486.53;5088571;28;20031;-65
2023/07/19 01:14:20;;;;;;;4.25;1.23;;;;;;;21.59;86.95;100495.47;5090224;28;20367;-64
2023/07/19 01:16:45;;;;;;;4.82;1.10;;;;;;;21.55;87.29;100486.31;5080380;28;20539;-65
2023/07/19 01:19:14;;;;;;;5.72;0.60;;;;;;;21.51;87.71;100488.56;5091582;28;20027;-64
2023/07/19 01:21:40;;;;;;;6.78;0.65;;;;;;;21.49;87.47;100491.44;5079120;28;20174;-65
2023/07/19 01:24:06;;;;;;;4.28;0.90;;;;;;;21.50;87.49;100487.78;5080874;28;20123;-66
2023/07/19 01:26:31;;;;;;;8.32;1.50;;;;;;;21.48;87.85;100489.81;5073475;28;20059;-65
2023/07/19 01:28:57;;;;;;;6.00;0.80;;;;;;;21.49;87.70;100482.69;5054163;28;20024;-66
2023/07/19 01:31:23;;;;;;;3.63;0.88;;;;;;;21.47;87.90;100476.78;5078704;28;20131;-66
2023/07/19 01:33:49;;;;;;;5.05;0.85;;;;;;;21.39;88.17;100467.25;5073191;28;20135;-66
2023/07/19 01:36:14;;;;;;;5.05;0.60;;;;;;;21.32;88.59;100461.19;5075335;28;20116;-64
2023/07/19 01:38:41;;;;;;;9.02;0.70;;;;;;;21.26;89.23;100464.72;5088316;28;20034;-65
2023/07/19 01:41:07;;;;;;;5.63;0.57;;;;;;;21.28;88.85;100483.03;5093733;28;20451;-65
2023/07/19 01:43:32;;;;;;;4.53;0.80;;;;;;;21.25;89.59;100478.19;5088651;28;20114;-66
2023/07/19 01:45:58;;;;;;;2.83;0.80;;;;;;;21.18;89.98;100483.47;5090337;28;20063;-65
2023/07/19 01:48:24;;;;;;;8.15;0.93;;;;;;;21.25;89.02;100483.47;5082493;28;20032;-65
2023/07/19 01:50:49;;;;;;;5.53;1.23;;;;;;;21.22;89.60;100468.81;5082033;28;20561;-66
2023/07/19 01:53:15;;;;;;;4.55;0.85;;;;;;;21.22;89.63;100458.22;5089019;28;20040;-65
2023/07/19 01:55:41;;;;;;;4.32;0.85;;;;;;;21.19;90.10;100463.91;5084353;28;20040;-65
2023/07/19 01:58:10;;;;;;;5.68;0.68;;;;;;;21.19;90.25;100448.84;5089138;28;20032;-65
2023/07/19 02:00:36;;;;;;;7.13;0.63;;;;;;;21.25;89.43;100449.03;5083140;28;20051;-64
2023/07/19 02:03:02;;;;;;;5.93;0.90;;;;;;;21.23;89.69;100438.66;5095942;28;20062;-65
2023/07/19 02:05:28;;;;;;;2.17;0.60;;;;;;;21.17;90.31;100428.88;5093253;28;20032;-66
2023/07/19 02:07:53;;;;;;;5.43;0.80;;;;;;;21.13;90.55;100414.44;5083356;28;20055;-65
2023/07/19 02:10:19;;;;;;;4.97;0.88;;;;;;;21.18;90.05;100419.91;5087106;28;20035;-65
2023/07/19 02:12:44;;;;;;;2.75;0.80;;;;;;;21.19;90.10;100416.22;5082942;28;20458;-65
2023/07/19 02:15:10;;;;;;;4.90;0.80;;;;;;;21.35;88.65;100422.84;5081316;28;20033;-65
2023/07/19 02:17:36;;;;;;;5.30;1.38;;;;;;;21.60;86.95;100414.91;5083107;28;20069;-65
2023/07/19 02:20:01;;;;;;;2.83;1.05;;;;;;;21.64;87.01;100416.09;5077950;28;20427;-65
2023/07/19 02:22:27;;;;;;;11.80;1.20;;;;;;;21.66;86.94;100419.34;5080807;28;20036;-65
2023/07/19 02:24:52;;;;;;;6.32;1.45;;;;;;;21.57;87.30;100412.69;5087408;28;20077;-66
2023/07/19 02:27:18;;;;;;;2.58;0.85;;;;;;;21.46;88.03;100417.66;5084292;28;20085;-65
2023/07/19 02:29:44;;;;;;;3.63;0.80;;;;;;;21.33;88.81;100406.34;5076444;28;20364;-66
2023/07/19 02:32:09;;;;;;;4.32;0.68;;;;;;;21.17;90.49;100403.19;5084335;28;20498;-66
2023/07/19 02:34:35;;;;;;;4.32;1.08;;;;;;;21.06;90.81;100395.13;5086024;28;20122;-65
2023/07/19 02:37:00;;;;;;;5.45;1.08;;;;;;;21.05;90.74;100396.16;5085189;28;20032;-66
2023/07/19 02:39:27;;;;;;;4.00;0.95;;;;;;;21.16;90.12;100390.97;5088818;28;20020;-66
2023/07/19 02:41:54;;;;;;;5.78;1.02;;;;;;;21.25;89.94;100388.91;5087991;28;20123;-65
2023/07/19 02:44:19;;;;;;;3.83;0.60;;;;;;;21.36;88.90;100374.94;5089487;28;20036;-66
2023/07/19 02:46:44;;;;;;;5.70;1.13;;;;;;;21.42;88.79;100370.59;5063367;28;20028;-66
2023/07/19 02:49:11;;;;;;;3.88;0.93;;;;;;;21.44;88.37;100372.00;5089565;28;20031;-65
2023/07/19 02:51:37;;;;;;;5.63;1.00;;;;;;;21.44;88.34;100364.06;5092250;28;20485;-66
2023/07/19 02:54:02;;;;;;;4.38;0.80;;;;;;;21.53;87.11;100348.69;5086543;28;20148;-65
2023/07/19 02:56:28;;;;;;;4.60;1.10;;;;;;;21.53;87.06;100317.69;5094843;28;20173;-64
2023/07/19 02:58:53;;;;;;;4.68;1.00;;;;;;;21.44;87.99;100332.25;5088952;28;20043;-66
2023/07/19 03:01:19;;;;;;;6.85;1.08;;;;;;;21.36;89.00;100382.88;5094167;28;20028;-66
2023/07/19 03:03:44;;;;;;;3.92;1.10;;;;;;;21.22;89.76;100381.38;5095493;28;20161;-65
2023/07/19 03:06:10;;;;;;;8.13;0.93;;;;;;;21.18;89.97;100366.91;5086844;28;20207;-66
2023/07/19 03:08:36;;;;;;;4.18;0.93;;;;;;;21.19;89.85;100368.53;5091290;28;20035;-66
2023/07/19 03:11:02;;;;;;;4.00;1.38;;;;;;;21.24;89.88;100368.75;5089844;28;20084;-65
2023/07/19 03:13:28;;;;;;;5.97;1.63;;;;;;;21.19;90.11;100379.94;5090159;28;20048;-66
2023/07/19 03:15:53;;;;;;;5.53;0.85;;;;;;;21.04;91.13;100382.09;5089501;28;20099;-66
2023/07/19 03:18:19;;;;;;;5.68;1.25;;;;;;;20.93;92.03;100374.03;5090001;28;20047;-66
2023/07/19 03:20:44;;;;;;;7.95;0.68;;;;;;;20.92;92.20;100375.03;5090375;28;20039;-65
2023/07/19 03:23:10;;;;;;;7.68;0.98;;;;;;;20.91;92.25;100381.38;5094011;28;20482;-66
2023/07/19 03:25:35;;;;;;;9.82;1.08;;;;;;;20.94;91.92;100363.22;5082654;28;20031;-65
2023/07/19 03:28:01;;;;;;;3.42;0.85;;;;;;;20.98;91.84;100345.88;5087179;28;20047;-65
2023/07/19 03:30:27;;;;;;;5.13;0.80;;;;;;;21.01;91.62;100337.50;5078925;28;20085;-66
2023/07/19 03:32:52;;;;;;;6.68;0.95;;;;;;;21.07;91.08;100355.19;5089909;28;20404;-65
2023/07/19 03:35:18;;;;;;;8.27;0.95;;;;;;;21.12;90.90;100370.44;5084689;28;20032;-65
2023/07/19 03:37:44;;;;;;;4.07;1.08;;;;;;;21.15;90.22;100362.84;5089153;28;20046;-65
2023/07/19 03:40:13;;;;;;;7.68;1.77;;;;;;;21.15;90.50;100362.03;5090282;28;20040;-66
2023/07/19 03:42:39;;;;;;;4.97;1.13;;;;;;;21.14;90.86;100373.66;5084375;28;20417;-65
2023/07/19 03:45:06;;;;;;;6.47;0.88;;;;;;;21.01;92.01;100392.31;5083543;28;20110;-65
2023/07/19 03:47:32;;;;;;;4.75;1.05;;;;;;;20.89;92.43;100394.81;5069084;28;20098;-65
2023/07/19 03:49:57;;;;;;;5.30;0.95;;;;;;;20.79;93.37;100391.84;5086119;28;20031;-65
2023/07/19 03:52:23;;;;;;;4.00;1.00;;;;;;;20.79;93.40;100389.19;5090751;28;20038;-65
2023/07/19 03:54:50;;;;;;;6.35;1.20;;;;;;;20.84;93.32;100392.81;5088060;28;20036;-66
2023/07/19 03:57:16;;;;;;;3.17;0.80;;;;;;;20.88;92.78;100403.78;5084324;28;20383;-65
2023/07/19 03:59:41;;;;;;;5.10;0.90;;;;;;;20.92;92.57;100404.97;5086907;28;20031;-65
2023/07/19 04:02:07;;;;;;;5.07;1.23;;;;;;;21.01;92.32;100409.00;5090503;28;20511;-65
2023/07/19 04:04:32;;;;;;;7.15;1.20;;;;;;;21.03;92.09;100401.66;5089177;28;20439;-65
2023/07/19 04:06:58;;;;;;;5.07;0.90;;;;;;;21.01;92.01;100403.72;5092771;28;20031;-65
2023/07/19 04:09:23;;;;;;;4.40;0.88;;;;;;;21.05;91.84;100412.03;5088695;28;20036;-66
2023/07/19 04:11:49;;;;;;;5.75;1.17;;;;;;;21.12;91.65;100420.75;5089206;28;20111;-66
2023/07/19 04:14:14;;;;;;;3.20;1.23;;;;;;;21.18;91.44;100425.19;5093759;28;20387;-65
2023/07/19 04:16:41;;;;;;;8.43;0.98;;;;;;;21.23;90.91;100430.69;5082816;28;20062;-65
2023/07/19 04:19:07;;;;;;;6.72;1.33;;;;;;;21.22;90.93;100426.44;5080620;28;20035;-66
2023/07/19 04:21:32;;;;;;;3.78;0.98;;;;;;;21.23;91.00;100422.75;5083670;28;20040;-66
2023/07/19 04:23:57;;;;;;;6.35;1.08;;;;;;;21.24;90.84;100424.38;5075196;28;20028;-65
2023/07/19 04:26:23;;;;;;;7.35;0.95;;;;;;;21.26;90.76;100417.03;5060701;28;20088;-65
2023/07/19 04:28:48;;;;;;;5.35;0.70;;;;;;;21.26;90.67;100414.38;5089341;28;20094;-66
2023/07/19 04:31:14;;;;;;;3.75;1.10;;;;;;;21.21;91.23;100411.56;5077117;28;20040;-66
2023/07/19 04:33:41;;;;;;;4.22;1.77;;;;;;;21.21;91.55;100414.19;5077793;28;20109;-66
2023/07/19 04:36:12;;;;;;;7.57;1.23;;;;;;;21.29;90.94;100418.41;5078027;28;20102;-66
2023/07/19 04:38:37;;;;;;;6.20;1.80;;;;;;;21.41;90.62;100408.72;5068221;28;20036;-66
2023/07/19 04:41:02;;;;;;;5.32;1.50;;;;;;;21.46;90.15;100411.53;5084846;28;20038;-65
2023/07/19 04:43:28;;;;;;;8.43;1.65;;;;;;;21.50;89.81;100415.38;5088868;28;20051;-66
2023/07/19 04:45:53;;;;;;;2.53;1.20;;;;;;;21.53;90.18;100417.59;5084295;28;20039;-66
2023/07/19 04:48:19;;;;;;;5.75;1.35;;;;;;;21.56;90.06;100427.78;5090717;28;20025;-66
2023/07/19 04:50:44;;;;;;;4.88;1.30;;;;;;;21.57;89.76;100425.94;5082250;28;20029;-66
2023/07/19 04:53:10;;;;;;;4.93;1.23;;;;;;;21.55;89.93;100433.28;5091458;28;20036;-66
2023/07/19 04:55:35;;;;;;;2.65;0.82;;;;;;;21.50;90.00;100432.09;5084653;28;20028;-66
2023/07/19 04:58:00;;;;;;;4.45;0.80;;;;;;;21.43;90.86;100427.88;5079450;28;20067;-66
2023/07/19 05:00:27;;;;;;;4.68;1.27;;;;;;;21.39;91.27;100426.69;5086039;28;20544;-65
2023/07/19 05:02:53;;;;;;;4.03;1.05;;;;;;;21.42;90.97;100428.91;5082413;28;20056;-65
2023/07/19 05:05:19;;;;;;;5.85;1.55;;;;;;;21.41;90.96;100425.44;5059948;28;20068;-66
2023/07/19 05:07:44;;;;;;;7.28;1.40;;;;;;;21.40;91.27;100423.81;5058469;28;20123;-66
2023/07/19 05:10:10;;;;;;;3.63;1.73;;;;;;;21.50;91.13;100423.34;5089250;28;20118;-65
2023/07/19 05:12:35;;;;;;;4.82;1.15;;;;;;;21.57;90.83;100420.63;5082459;28;20451;-66
2023/07/19 05:15:01;;;;;;;6.55;2.47;;;;;;;21.64;90.30;100424.84;5091929;28;20421;-66
2023/07/19 05:17:27;;;;;;;5.22;1.30;;;;;;;21.69;90.03;100417.06;5090967;28;20592;-64
2023/07/19 05:19:52;;;;;;;6.97;0.93;;;;;;;21.69;90.04;100421.56;5074167;28;20033;-66
2023/07/19 05:22:17;;;;;;;4.50;0.80;;;;;;;21.68;89.73;100422.59;5087050;28;20039;-65
2023/07/19 05:24:43;;;;;;;11.20;1.60;;;;;;;21.69;89.71;100410.94;5080408;28;20025;-65
2023/07/19 05:27:09;;;;;;;6.00;1.23;;;;;;;21.79;89.39;100412.03;5087436;28;20036;-65
2023/07/19 05:29:34;;;;;;;8.93;1.10;;;;;;;21.90;88.21;100407.88;5087676;28;20040;-66
2023/07/19 05:32:00;;;;;;;7.05;1.10;;;;;;;22.04;88.13;100400.63;5085055;28;20060;-66
2023/07/19 05:34:25;;;;;;;7.25;1.65;;;;;;;22.14;87.60;100385.81;5080711;28;20039;-65
2023/07/19 05:36:51;;;;;;;7.40;1.73;;;;;;;22.25;87.17;100378.09;5085863;28;20116;-64
2023/07/19 05:39:17;;;;;;;4.70;1.27;;;;;;;22.42;86.37;100379.13;5064132;28;20032;-64
2023/07/19 05:41:43;;;;;;;3.80;1.95;;;;;;;22.60;85.60;100371.13;5070440;28;20040;-64
2023/07/19 05:44:08;;;;;;;5.63;1.70;;;;;;;22.82;84.85;100368.78;5084333;28;20029;-64
2023/07/19 05:46:37;;;;;;;4.45;1.85;;;;;;;22.99;84.92;100366.28;5082748;28;20482;-65
2023/07/19 05:49:03;;;;;;;6.15;2.10;;;;;;;23.06;84.98;100359.03;5091758;28;20076;-65
2023/07/19 05:51:29;;;;;;;8.48;1.85;;;;;;;23.14;84.77;100361.34;5084802;28;20115;-63
2023/07/19 05:53:54;;;;;;;9.63;1.25;;;;;;;23.16;84.69;100343.31;5086337;28;20040;-64
2023/07/19 05:56:21;;;;;;;3.80;1.30;;;;;;;23.26;84.29;100356.84;5092957;28;20023;-64
2023/07/19 05:58:47;;;;;;;5.88;1.02;;;;;;;23.31;83.81;100345.53;5081882;28;20110;-64
2023/07/19 06:01:17;;;;;;;4.82;1.45;;;;;;;23.32;83.09;100342.63;5088442;28;20127;-64
2023/07/19 06:03:47;;;;;;;6.40;1.17;;;;;;;23.41;82.06;100337.78;5085822;28;20035;-64
2023/07/19 06:06:14;;;;;;;2.92;1.13;;;;;;;23.38;82.37;100339.06;5086270;28;20036;-64
2023/07/19 06:08:40;;;;;;;8.55;1.20;;;;;;;23.38;82.64;100331.06;5085876;28;20491;-64
2023/07/19 06:11:13;;;;;;;2.80;1.52;;;;;;;23.44;82.01;100335.47;5076557;28;20052;-63
2023/07/19 06:13:38;;;;;;;4.70;0.98;;;;;;;23.55;82.06;100330.41;5077943;28;20033;-64
2023/07/19 06:16:05;;;;;;;3.65;1.08;;;;;;;23.67;81.82;100336.50;5063184;28;20042;-64
2023/07/19 06:18:31;;;;;;;3.17;1.00;;;;;;;23.74;81.27;100338.00;5079530;28;20065;-64
2023/07/19 06:20:57;;;;;;;3.67;0.70;;;;;;;23.77;81.33;100334.06;5081602;28;20101;-64
2023/07/19 06:23:22;;;;;;;3.72;1.00;;;;;;;23.83;80.91;100327.81;5075372;28;20039;-65
2023/07/19 06:25:49;;;;;;;8.48;1.58;;;;;;;23.87;80.65;100330.81;5068494;28;20058;-63
2023/07/19 06:28:15;;;;;;;5.03;0.75;;;;;;;23.92;80.32;100331.72;5061685;28;20082;-65
2023/07/19 06:30:42;;;;;;;9.38;1.73;;;;;;;24.00;79.99;100327.91;5077543;28;20039;-64
2023/07/19 06:33:07;;;;;;;6.03;1.33;;;;;;;24.06;79.55;100327.78;5083714;28;20041;-64
2023/07/19 06:35:34;;;;;;;5.47;1.10;;;;;;;24.17;79.45;100329.56;5087883;28;20082;-64
2023/07/19 06:38:00;;;;;;;4.45;0.93;;;;;;;24.23;79.05;100337.63;5063396;28;20028;-64
2023/07/19 06:40:26;;;;;;;6.50;1.65;;;;;;;24.34;79.20;100339.50;5086145;28;20034;-64
2023/07/19 06:42:52;;;;;;;9.80;1.23;;;;;;;24.41;78.91;100350.81;5059977;28;20032;-64
2023/07/19 06:45:33;;;;;;;4.32;0.63;;;;;;;24.37;78.55;100344.34;5082350;28;20020;-63
2023/07/19 06:48:01;;;;;;;4.88;1.02;;;;;;;24.42;78.67;100339.13;5085470;28;20028;-64
2023/07/19 06:50:27;;;;;;;6.57;1.13;;;;;;;24.50;78.48;100336.06;5078645;28;20399;-64
2023/07/19 06:52:52;;;;;;;5.63;1.10;;;;;;;24.60;78.19;100328.22;5077348;28;20029;-65
2023/07/19 06:55:18;;;;;;;5.90;1.27;;;;;;;24.68;77.78;100335.84;5080259;28;20023;-65
2023/07/19 06:57:43;;;;;;;4.38;1.10;;;;;;;24.79;77.91;100331.50;5083216;28;20039;-64
2023/07/19 07:00:10;;;;;;;8.30;0.98;;;;;;;24.74;77.87;100334.06;5079297;28;20700;-65
2023/07/19 07:02:37;;;;;;;3.55;1.38;;;;;;;24.79;77.84;100332.31;5061602;28;20089;-64
2023/07/19 07:05:02;;;;;;;6.10;1.35;;;;;;;24.87;77.36;100331.09;5078745;28;20462;-64
2023/07/19 07:07:28;;;;;;;5.72;2.05;;;;;;;25.06;76.98;100329.81;5084929;28;20083;-65
2023/07/19 07:09:53;;;;;;;14.02;1.70;;;;;;;25.26;76.84;100331.19;5086042;28;20055;-65
2023/07/19 07:12:19;;;;;;;7.38;1.42;;;;;;;25.48;76.11;100323.25;5073135;28;20043;-64
2023/07/19 07:15:30;;;;;;;4.50;1.42;;;;;;;25.53;75.30;100318.78;5078310;28;20032;-64
2023/07/19 07:18:30;;;;;;;5.25;1.25;;;;;;;25.54;74.91;100306.25;5074094;28;20051;-64
2023/07/19 07:20:55;;;;;;;7.30;1.30;;;;;;;25.73;74.57;100304.94;5078988;28;20510;-64
2023/07/19 07:23:21;;;;;;;4.35;1.17;;;;;;;25.86;74.16;100303.75;5077961;28;20049;-64
2023/07/19 07:25:54;;;;;;;7.38;1.40;;;;;;;26.02;73.27;100301.00;5079853;28;20036;-64
2023/07/19 07:28:19;;;;;;;5.00;1.38;;;;;;;26.17;73.05;100296.88;5067048;28;20383;-64
2023/07/19 07:30:45;;;;;;;5.75;1.35;;;;;;;26.39;72.56;100287.00;5087376;28;20040;-64
2023/07/19 07:33:12;;;;;;;7.05;1.30;;;;;;;26.59;71.58;100284.50;5084291;28;20567;-64
2023/07/19 07:35:37;;;;;;;5.53;1.13;;;;;;;26.67;71.13;100278.69;5081095;28;20388;-64
2023/07/19 07:38:04;;;;;;;8.50;1.33;;;;;;;26.86;70.96;100275.63;5078326;28;20077;-64
2023/07/19 07:40:30;;;;;;;7.72;2.03;;;;;;;26.89;71.15;100275.13;5077992;28;20036;-63
2023/07/19 07:42:56;;;;;;;14.80;2.10;;;;;;;26.95;70.74;100280.22;5085794;28;20016;-63
2023/07/19 07:45:23;;;;;;;6.80;1.75;;;;;;;27.12;70.28;100296.16;5080155;28;20039;-62
2023/07/19 07:47:49;;;;;;;6.35;1.52;;;;;;;27.22;70.17;100285.53;5083891;28;20111;-64
2023/07/19 07:50:18;;;;;;;4.47;1.48;;;;;;;27.28;69.95;100292.50;5087612;28;20178;-63
2023/07/19 07:52:43;;;;;;;8.15;1.58;;;;;;;27.45;69.13;100308.38;5079536;28;20064;-65
2023/07/19 07:55:09;;;;;;;6.80;1.52;;;;;;;27.59;68.65;100309.56;5076635;28;20119;-66
2023/07/19 07:57:36;;;;;;;5.32;1.40;;;;;;;27.57;69.04;100316.19;5063930;28;20036;-64
2023/07/19 08:00:02;;;;;;;6.85;1.10;;;;;;;27.53;69.54;100317.78;5085224;28;20484;-64
2023/07/19 08:02:28;;;;;;;5.45;1.48;;;;;;;27.62;69.21;100316.25;5087180;28;20062;-65
2023/07/19 08:04:53;;;;;;;4.65;1.35;;;;;;;27.67;69.00;100305.56;5083640;28;20421;-63
2023/07/19 08:07:19;;;;;;;5.30;1.25;;;;;;;27.79;68.56;100308.03;5085890;28;20031;-63
2023/07/19 08:09:45;;;;;;;5.40;1.67;;;;;;;28.00;67.98;100301.66;5079256;28;20092;-63
2023/07/19 08:12:13;;;;;;;4.45;1.58;;;;;;;28.22;67.82;100302.31;5069993;28;20074;-63
2023/07/19 08:14:40;;;;;;;5.82;1.40;;;;;;;28.26;66.96;100290.00;5079530;28;20751;-64
2023/07/19 08:17:10;;;;;;;8.15;1.85;;;;;;;28.24;66.97;100288.66;5085093;28;20031;-63
2023/07/19 08:19:36;;;;;;;3.55;1.60;;;;;;;28.12;66.93;100298.75;5072032;28;20040;-63
2023/07/19 08:22:04;;;;;;;5.45;1.95;;;;;;;28.26;66.22;100299.91;5066629;28;20032;-66
2023/07/19 08:24:30;;;;;;;8.05;2.67;;;;;;;28.43;65.68;100289.72;5075240;28;20027;-65
2023/07/19 08:26:55;;;;;;;5.68;1.85;;;;;;;28.65;64.96;100290.28;5067893;28;20103;-67
2023/07/19 08:29:20;;;;;;;7.50;1.77;;;;;;;28.79;65.69;100287.06;5073517;28;20028;-66
2023/07/19 08:31:46;;;;;;;6.75;1.98;;;;;;;28.96;64.86;100282.25;5085115;28;20040;-67
2023/07/19 08:34:11;;;;;;;8.27;1.80;;;;;;;28.94;65.48;100282.50;5099512;28;20038;-66
2023/07/19 08:36:37;;;;;;;7.20;1.88;;;;;;;28.99;64.97;100287.06;5092344;28;20344;-67
2023/07/19 08:39:02;;;;;;;7.82;1.92;;;;;;;29.12;64.20;100281.16;5092637;28;20444;-65
2023/07/19 08:41:31;;;;;;;8.88;1.80;;;;;;;29.08;64.38;100273.91;5083343;28;20409;-65
2023/07/19 08:43:57;;;;;;;10.52;2.15;;;;;;;29.30;63.75;100266.38;5087322;28;20072;-66
2023/07/19 08:46:23;;;;;;;7.63;2.10;;;;;;;29.27;64.27;100254.31;5083000;28;20055;-66
2023/07/19 08:48:49;;;;;;;5.82;1.42;;;;;;;29.36;63.23;100258.00;5082551;28;20074;-66
2023/07/19 08:51:16;;;;;;;5.65;2.40;;;;;;;29.36;63.38;100251.84;5086020;28;20033;-66
2023/07/19 08:53:41;;;;;;;6.43;1.95;;;;;;;29.44;63.65;100245.13;5078883;28;20024;-66
2023/07/19 08:56:13;;;;;;;5.72;1.98;;;;;;;29.68;62.52;100240.75;5075996;28;20054;-66
2023/07/19 08:58:43;;;;;;;7.13;2.40;;;;;;;29.80;61.66;100235.81;5081073;28;20115;-65
2023/07/19 09:01:09;;;;;;;9.20;2.40;;;;;;;29.98;60.49;100232.50;5083139;28;20047;-66
2023/07/19 09:03:35;;;;;;;6.80;2.10;;;;;;;29.99;61.24;100233.31;5081140;28;20019;-65
2023/07/19 09:06:01;;;;;;;5.68;2.28;;;;;;;29.82;61.90;100236.34;5084115;28;20036;-66
2023/07/19 09:08:40;;;;;;;7.03;2.13;;;;;;;29.70;61.62;100227.84;5067969;28;20139;-66
2023/07/19 09:11:07;;;;;;;6.32;2.90;;;;;;;29.79;61.92;100228.84;5086601;28;20035;-66
2023/07/19 09:13:36;;;;;;;6.32;2.45;;;;;;;29.88;61.41;100231.75;5087419;28;20140;-66
2023/07/19 09:16:08;;;;;;;9.98;3.55;;;;;;;29.94;61.72;100239.50;5082447;28;20177;-65
2023/07/19 09:18:37;;;;;;;6.35;2.63;;;;;;;29.83;62.26;100243.31;5087524;28;20040;-66
2023/07/19 09:21:05;;;;;;;7.13;2.78;;;;;;;29.76;62.47;100252.78;5081757;28;20031;-66
2023/07/19 09:23:36;;;;;;;8.55;2.22;;;;;;;29.80;62.14;100251.94;5085882;28;20032;-66
2023/07/19 09:26:06;;;;;;;6.88;2.95;;;;;;;29.79;62.13;100244.94;5088175;28;20092;-71
2023/07/19 09:28:34;;;;;;;5.10;2.92;;;;;;;29.87;63.09;100248.94;5078907;28;20828;-65
2023/07/19 09:31:03;;;;;;;8.15;2.90;;;;;;;29.96;62.30;100241.91;5081533;28;20043;-65
2023/07/19 09:33:28;;;;;;;7.32;2.33;;;;;;;30.29;60.41;100241.16;5068624;28;20032;-65
2023/07/19 09:35:57;;;;;;;7.03;2.67;;;;;;;30.64;58.42;100229.38;5056211;28;20025;-66
2023/07/19 09:38:24;;;;;;;7.03;2.45;;;;;;;30.63;58.86;100226.97;5063898;28;20039;-65
2023/07/19 09:40:51;;;;;;;4.70;2.60;;;;;;;30.46;59.45;100227.34;5053986;28;20373;-66
2023/07/19 09:43:18;;;;;;;8.52;2.90;;;;;;;30.51;58.59;100227.28;5065015;28;20050;-66
2023/07/19 09:45:46;;;;;;;6.18;2.70;;;;;;;30.58;58.91;100222.44;5064338;28;20047;-65
2023/07/19 09:48:17;;;;;;;4.07;2.42;;;;;;;30.69;59.00;100217.75;5065001;28;20024;-66
2023/07/19 09:50:51;;;;;;;6.10;2.63;;;;;;;30.82;58.42;100200.94;5065885;28;20039;-66
2023/07/19 09:53:25;;;;;;;6.00;2.93;;;;;;;30.78;58.60;100199.91;5065539;28;20087;-66
2023/07/19 09:55:56;;;;;;;5.72;2.50;;;;;;;30.54;59.63;100191.78;5046272;28;20438;-65
2023/07/19 09:58:25;;;;;;;7.60;2.63;;;;;;;30.62;59.96;100190.41;5061987;28;20028;-66
2023/07/19 10:00:51;;;;;;;6.13;2.70;;;;;;;30.69;58.98;100186.28;5072808;28;20040;-66
2023/07/19 10:03:20;;;;;;;4.50;2.40;;;;;;;30.76;59.63;100187.81;5070248;28;20039;-66
2023/07/19 10:05:57;;;;;;;5.50;2.75;;;;;;;30.76;59.99;100185.94;5062562;28;20493;-65
2023/07/19 10:08:23;;;;;;;4.85;2.80;;;;;;;30.82;61.00;100168.66;5059959;28;20036;-65
2023/07/19 10:10:57;;;;;;;10.88;2.95;;;;;;;30.96;60.20;100158.03;5066058;28;20106;-65
2023/07/19 10:13:29;;;;;;;5.45;2.65;;;;;;;31.06;60.23;100157.09;5068701;28;20037;-65
2023/07/19 10:15:55;;;;;;;7.32;2.40;;;;;;;31.09;59.66;100157.34;5062914;28;20041;-65
2023/07/19 10:18:20;;;;;;;6.85;2.35;;;;;;;31.15;60.63;100153.53;5061149;28;20028;-65
2023/07/19 10:21:02;;;;;;;4.82;2.88;;;;;;;31.22;60.04;100150.47;5061571;28;20024;-65
2023/07/19 10:23:30;;;;;;;4.60;3.00;;;;;;;31.18;59.97;100149.47;5064477;28;20040;-65
2023/07/19 10:25:56;;;;;;;4.88;2.95;;;;;;;31.09;58.98;100146.56;5054164;28;20497;-65
2023/07/19 10:28:29;;;;;;;10.05;2.83;;;;;;;30.91;59.04;100141.94;5059791;28;20058;-65
2023/07/19 10:31:01;;;;;;;5.15;2.88;;;;;;;30.71;60.21;100144.88;5055965;28;20048;-65
2023/07/19 10:33:28;;;;;;;4.18;2.58;;;;;;;30.68;61.92;100138.97;5035610;28;20055;-65
2023/07/19 10:36:03;;;;;;;6.95;3.30;;;;;;;30.76;60.79;100144.78;5058889;28;20038;-65
2023/07/19 10:38:30;;;;;;;5.82;2.88;;;;;;;30.71;60.86;100152.94;5049803;28;20449;-65
2023/07/19 10:41:09;;;;;;;9.20;2.63;;;;;;;30.72;62.37;100162.63;5055429;28;20021;-65
2023/07/19 10:43:36;;;;;;;8.85;2.90;;;;;;;30.81;61.88;100166.25;5063533;28;20043;-66
2023/07/19 10:46:05;;;;;;;6.63;2.88;;;;;;;30.84;62.00;100161.09;5054719;28;20112;-65
2023/07/19 10:48:38;;;;;;;6.32;2.83;;;;;;;30.96;61.60;100156.13;5053097;28;20100;-65
2023/07/19 10:51:05;;;;;;;7.97;3.45;;;;;;;31.14;60.92;100143.84;5054868;28;20126;-65
2023/07/19 10:53:58;;;;;;;7.35;4.10;;;;;;;31.22;61.27;100151.25;5063829;28;20131;-66
2023/07/19 10:56:25;;;;;;;9.27;3.35;;;;;;;31.11;61.76;100167.81;5071457;28;20032;-65
2023/07/19 10:58:50;;;;;;;5.00;3.25;;;;;;;31.04;61.74;100178.91;5056429;28;20029;-65
2023/07/19 11:01:16;;;;;;;9.55;3.63;;;;;;;30.90;61.07;100196.81;5058512;28;20438;-66
2023/07/19 11:03:46;;;;;;;6.60;3.10;;;;;;;30.77;62.33;100189.41;5060530;28;20036;-66
2023/07/19 11:06:12;;;;;;;9.77;3.78;;;;;;;30.67;62.77;100193.03;5065021;28;20052;-66
2023/07/19 11:08:37;;;;;;;5.43;2.80;;;;;;;30.52;63.39;100193.16;5067033;28;20455;-65
2023/07/19 11:11:03;;;;;;;9.25;3.47;;;;;;;30.29;64.42;100203.53;5065894;28;20028;-66
2023/07/19 11:13:30;;;;;;;7.13;2.80;;;;;;;30.15;64.95;100201.81;5068101;28;20029;-64
2023/07/19 11:15:58;;;;;;;5.05;3.20;;;;;;;29.99;65.22;100201.91;5062709;28;20033;-66
2023/07/19 11:18:30;;;;;;;5.40;3.15;;;;;;;29.78;66.44;100207.63;5071657;28;20391;-66
2023/07/19 11:20:57;;;;;;;11.73;3.80;;;;;;;29.64;66.39;100231.63;5073268;28;20102;-65
2023/07/19 11:23:24;;;;;;;9.95;3.40;;;;;;;29.47;68.02;100252.63;5066608;28;20031;-65